createdAt,value
2023-02-27T00:05:16.197Z,204.83
2023-02-27T00:15:22.834Z,195.73
2023-02-27T00:25:26.699Z,198.17
2023-02-27T00:35:32.085Z,200.50
2023-02-27T00:45:35.987Z,190.10
2023-02-27T00:55:41.178Z,195.73
2023-02-27T01:05:45.597Z,195.27
2023-02-27T01:15:51.334Z,187.00
2023-02-27T08:14:05.660Z,220.83
2023-02-27T08:24:09.389Z,210.07
2023-02-27T08:34:14.843Z,218.67
2023-02-27T08:44:18.485Z,203.27
2023-02-27T08:54:26.657Z,214.87
2023-02-27T09:04:30.696Z,222.07
2023-02-27T09:14:35.926Z,218.90
2023-02-27T09:24:39.664Z,221.33
2023-02-27T09:34:44.707Z,218.93
2023-02-27T09:44:50.994Z,221.70
2023-02-27T09:54:56.224Z,224.23
2023-02-27T10:05:12.852Z,221.00
2023-02-27T10:15:27.677Z,219.17
2023-02-27T10:25:35.656Z,221.13
2023-02-27T10:35:44.875Z,213.33
2023-02-27T10:45:49.951Z,220.53
2023-02-27T10:56:05.806Z,215.27
2023-02-27T11:06:21.094Z,211.67
2023-02-27T11:16:26.983Z,214.27
2023-02-27T11:26:34.740Z,213.60
2023-02-27T11:36:45.702Z,219.83
2023-02-27T11:46:49.983Z,212.83
2023-02-27T11:57:01.632Z,211.47
2023-02-27T12:07:16.798Z,215.43
2023-02-27T12:17:28.690Z,218.50
2023-02-27T12:27:44.667Z,224.90
2023-02-27T12:37:49.948Z,215.33
2023-02-27T12:48:05.760Z,212.50
2023-02-27T12:58:39.036Z,192.43
2023-02-27T13:09:06.805Z,191.87
2023-02-27T13:19:16.457Z,189.90
2023-02-27T13:29:23.515Z,192.83
2023-02-27T13:39:56.188Z,188.03
2023-02-27T13:50:01.746Z,194.30
2023-02-27T14:00:20.747Z,193.10
2023-02-27T14:10:28.879Z,194.40
2023-02-27T14:20:53.724Z,190.17
2023-02-27T14:31:01.506Z,191.80
2023-02-27T14:41:28.275Z,193.33
2023-02-27T14:51:33.903Z,193.53
2023-02-27T15:01:39.556Z,192.93
2023-02-27T15:11:51.268Z,186.60
2023-02-27T15:22:15.177Z,188.70
2023-02-27T15:32:28.116Z,182.30
2023-02-27T15:42:37.606Z,186.37
2023-02-27T15:52:45.833Z,187.13
2023-02-27T16:02:54.367Z,184.37
2023-02-27T16:13:21.166Z,192.23
2023-02-27T16:23:28.546Z,193.37
2023-02-27T16:33:39.057Z,183.47
2023-02-27T16:43:45.106Z,183.07
2023-02-27T16:53:49.437Z,186.10
2023-02-27T17:03:54.320Z,194.10
2023-02-27T17:13:57.976Z,200.77
2023-02-27T17:24:03.366Z,197.13
2023-02-27T17:34:08.915Z,197.07
2023-02-27T17:44:14.507Z,201.27
2023-02-27T17:54:17.969Z,202.83
2023-02-27T18:04:22.827Z,202.47
2023-02-27T18:14:27.804Z,199.67
2023-02-27T18:24:32.723Z,195.17
2023-02-27T18:34:36.637Z,188.40
2023-02-27T18:44:42.847Z,186.20
2023-02-27T18:54:46.375Z,190.33
2023-02-27T19:04:51.297Z,192.67
2023-02-27T19:14:55.471Z,185.00
2023-02-27T19:25:00.427Z,186.13
2023-02-27T19:35:04.018Z,187.27
2023-02-27T19:45:10.218Z,193.63
2023-02-27T19:55:13.982Z,186.60
2023-02-27T20:05:19.283Z,192.00
2023-02-27T20:15:22.788Z,201.83
2023-02-27T20:25:27.765Z,190.50
2023-02-27T20:35:31.346Z,188.60
2023-02-27T20:45:40.556Z,194.77
2023-02-27T20:55:50.451Z,197.00
2023-02-27T21:05:55.249Z,187.07
2023-02-27T21:16:01.557Z,201.13
2023-02-27T21:26:08.116Z,193.57
2023-02-27T21:36:12.636Z,187.50
2023-02-27T21:46:18.330Z,194.37
2023-02-27T21:56:21.778Z,193.33
2023-02-27T22:06:29.445Z,189.77
2023-02-27T22:16:34.256Z,192.90
2023-02-27T22:26:39.607Z,194.43
2023-02-27T22:36:43.111Z,188.50
2023-02-27T22:46:50.389Z,194.40
2023-02-27T22:56:57.949Z,194.47
2023-02-27T23:07:03.018Z,194.03
2023-02-27T23:17:06.494Z,193.07
2023-02-27T23:27:25.437Z,196.43
2023-02-27T23:37:29.526Z,193.07
2023-02-27T23:47:43.968Z,193.83
2023-02-27T23:57:47.763Z,195.57
